sensor_id;sensor_type;location;lat;lon;timestamp;pressure;altitude;pressure_sealevel;temperature;humidity
11049;BME280;5577;42.706;23.160;2023-06-04T00:00:43;94332.94;;;16.26;100.00
11049;BME280;5577;42.706;23.160;2023-06-04T00:03:26;94336.78;;;16.21;100.00
11049;BME280;5577;42.706;23.160;2023-06-04T00:06:10;94339.78;;;16.13;100.00
11049;BME280;5577;42.706;23.160;2023-06-04T00:08:55;94332.47;;;16.06;100.00
11049;BME280;5577;42.706;23.160;2023-06-04T00:11:39;94330.94;;;16.02;100.00
11049;BME280;5577;42.706;23.160;2023-06-04T00:14:23;94324.06;;;15.97;100.00
11049;BME280;5577;42.706;23.160;2023-06-04T00:17:08;94335.50;;;15.98;100.00
11049;BME280;5577;42.706;23.160;2023-06-04T00:19:53;94334.34;;;15.92;100.00
11049;BME280;5577;42.706;23.160;2023-06-04T00:22:37;94326.31;;;15.92;100.00
11049;BME280;5577;42.706;23.160;2023-06-04T00:25:21;94329.72;;;15.85;100.00
11049;BME280;5577;42.706;23.160;2023-06-04T00:28:06;94320.19;;;15.88;100.00
11049;BME280;5577;42.706;23.160;2023-06-04T00:30:49;94331.63;;;15.88;100.00
11049;BME280;5577;42.706;23.160;2023-06-04T00:33:34;94327.84;;;15.93;100.00
11049;BME280;5577;42.706;23.160;2023-06-04T00:36:19;94317.50;;;15.88;100.00
11049;BME280;5577;42.706;23.160;2023-06-04T00:39:03;94320.16;;;15.81;100.00
11049;BME280;5577;42.706;23.160;2023-06-04T00:41:46;94293.00;;;15.65;100.00
11049;BME280;5577;42.706;23.160;2023-06-04T00:44:30;94255.81;;;15.35;100.00
11049;BME280;5577;42.706;23.160;2023-06-04T00:47:19;94320.53;;;15.79;100.00
11049;BME280;5577;42.706;23.160;2023-06-04T00:50:04;94323.22;;;15.79;100.00
11049;BME280;5577;42.706;23.160;2023-06-04T00:52:49;94289.19;;;15.62;100.00
11049;BME280;5577;42.706;23.160;2023-06-04T00:55:33;94317.41;;;15.67;100.00
11049;BME280;5577;42.706;23.160;2023-06-04T00:58:18;94314.31;;;15.61;100.00
11049;BME280;5577;42.706;23.160;2023-06-04T01:01:04;94315.09;;;15.62;100.00
11049;BME280;5577;42.706;23.160;2023-06-04T01:03:52;94311.22;;;15.52;100.00
11049;BME280;5577;42.706;23.160;2023-06-04T01:06:43;94314.22;;;15.44;100.00
11049;BME280;5577;42.706;23.160;2023-06-04T01:09:28;94314.19;;;15.40;100.00
11049;BME280;5577;42.706;23.160;2023-06-04T01:12:12;94313.03;;;15.38;100.00
11049;BME280;5577;42.706;23.160;2023-06-04T01:14:57;94316.06;;;15.36;100.00
11049;BME280;5577;42.706;23.160;2023-06-04T01:17:43;94320.66;;;15.36;100.00
11049;BME280;5577;42.706;23.160;2023-06-04T01:20:32;94315.97;;;15.29;100.00
11049;BME280;5577;42.706;23.160;2023-06-04T01:23:37;94320.22;;;15.34;100.00
11049;BME280;5577;42.706;23.160;2023-06-04T01:26:27;94313.31;;;15.29;100.00
11049;BME280;5577;42.706;23.160;2023-06-04T01:29:12;94314.81;;;15.27;100.00
11049;BME280;5577;42.706;23.160;2023-06-04T01:31:57;94314.00;;;15.19;100.00
11049;BME280;5577;42.706;23.160;2023-06-04T01:34:46;94321.56;;;15.14;100.00
11049;BME280;5577;42.706;23.160;2023-06-04T01:37:30;94330.34;;;15.11;100.00
11049;BME280;5577;42.706;23.160;2023-06-04T01:40:14;94294.69;;;14.86;100.00
11049;BME280;5577;42.706;23.160;2023-06-04T01:42:59;94328.41;;;15.11;100.00
11049;BME280;5577;42.706;23.160;2023-06-04T01:45:43;94285.22;;;14.92;100.00
11049;BME280;5577;42.706;23.160;2023-06-04T01:48:28;94318.59;;;15.19;100.00
11049;BME280;5577;42.706;23.160;2023-06-04T01:51:11;94329.91;;;15.09;100.00
11049;BME280;5577;42.706;23.160;2023-06-04T01:53:55;94334.84;;;15.07;100.00
11049;BME280;5577;42.706;23.160;2023-06-04T01:56:39;94333.00;;;15.11;100.00
11049;BME280;5577;42.706;23.160;2023-06-04T01:59:24;94339.56;;;15.20;100.00
11049;BME280;5577;42.706;23.160;2023-06-04T02:02:07;94338.44;;;15.25;100.00
11049;BME280;5577;42.706;23.160;2023-06-04T02:04:52;94333.84;;;15.26;100.00
11049;BME280;5577;42.706;23.160;2023-06-04T02:07:40;94339.56;;;15.24;100.00
11049;BME280;5577;42.706;23.160;2023-06-04T02:10:25;94341.13;;;15.28;100.00
11049;BME280;5577;42.706;23.160;2023-06-04T02:13:09;94344.59;;;15.32;100.00
11049;BME280;5577;42.706;23.160;2023-06-04T02:15:53;94345.41;;;15.36;100.00
11049;BME280;5577;42.706;23.160;2023-06-04T02:18:37;94350.03;;;15.43;100.00
11049;BME280;5577;42.706;23.160;2023-06-04T02:21:21;94356.50;;;15.42;100.00
11049;BME280;5577;42.706;23.160;2023-06-04T02:24:05;94343.56;;;15.44;100.00
11049;BME280;5577;42.706;23.160;2023-06-04T02:26:49;94360.34;;;15.44;100.00
11049;BME280;5577;42.706;23.160;2023-06-04T02:29:33;94356.53;;;15.45;100.00
11049;BME280;5577;42.706;23.160;2023-06-04T02:32:18;94369.88;;;15.49;100.00
11049;BME280;5577;42.706;23.160;2023-06-04T02:35:02;94372.97;;;15.51;100.00
11049;BME280;5577;42.706;23.160;2023-06-04T02:37:46;94371.84;;;15.55;100.00
11049;BME280;5577;42.706;23.160;2023-06-04T02:40:30;94379.13;;;15.62;100.00
11049;BME280;5577;42.706;23.160;2023-06-04T02:43:14;94383.75;;;15.65;100.00
11049;BME280;5577;42.706;23.160;2023-06-04T02:45:59;94376.50;;;15.69;100.00
11049;BME280;5577;42.706;23.160;2023-06-04T02:48:43;94382.28;;;15.74;100.00
11049;BME280;5577;42.706;23.160;2023-06-04T02:51:27;94382.31;;;15.78;100.00
11049;BME280;5577;42.706;23.160;2023-06-04T02:54:12;94385.34;;;15.80;100.00
11049;BME280;5577;42.706;23.160;2023-06-04T02:56:56;94383.09;;;15.82;100.00
11049;BME280;5577;42.706;23.160;2023-06-04T02:59:40;94383.47;;;15.80;100.00
11049;BME280;5577;42.706;23.160;2023-06-04T03:02:24;94385.03;;;15.85;100.00
11049;BME280;5577;42.706;23.160;2023-06-04T03:05:09;94348.59;;;15.56;100.00
11049;BME280;5577;42.706;23.160;2023-06-04T03:07:57;94389.13;;;15.72;100.00
11049;BME280;5577;42.706;23.160;2023-06-04T03:10:42;94385.31;;;15.69;100.00
11049;BME280;5577;42.706;23.160;2023-06-04T03:13:26;94386.81;;;15.70;100.00
11049;BME280;5577;42.706;23.160;2023-06-04T03:16:10;94389.13;;;15.72;100.00
11049;BME280;5577;42.706;23.160;2023-06-04T03:18:54;94394.31;;;15.51;100.00
11049;BME280;5577;42.706;23.160;2023-06-04T03:21:37;94393.88;;;15.45;100.00
11049;BME280;5577;42.706;23.160;2023-06-04T03:24:23;94395.75;;;15.41;100.00
11049;BME280;5577;42.706;23.160;2023-06-04T03:27:08;94396.09;;;15.36;100.00
11049;BME280;5577;42.706;23.160;2023-06-04T03:29:53;94400.59;;;15.29;100.00
11049;BME280;5577;42.706;23.160;2023-06-04T03:32:37;94402.81;;;15.23;100.00
11049;BME280;5577;42.706;23.160;2023-06-04T03:35:21;94405.50;;;15.23;100.00
11049;BME280;5577;42.706;23.160;2023-06-04T03:38:05;94409.28;;;15.22;100.00
11049;BME280;5577;42.706;23.160;2023-06-04T03:40:49;94409.19;;;15.15;100.00
11049;BME280;5577;42.706;23.160;2023-06-04T03:43:33;94407.72;;;15.18;100.00
11049;BME280;5577;42.706;23.160;2023-06-04T03:46:17;94411.13;;;15.15;100.00
11049;BME280;5577;42.706;23.160;2023-06-04T03:49:02;94420.31;;;15.21;100.00
11049;BME280;5577;42.706;23.160;2023-06-04T03:51:46;94421.06;;;15.21;100.00
11049;BME280;5577;42.706;23.160;2023-06-04T03:54:30;94426.06;;;15.26;100.00
11049;BME280;5577;42.706;23.160;2023-06-04T03:57:14;94378.63;;;15.02;100.00
11049;BME280;5577;42.706;23.160;2023-06-04T03:59:58;94422.31;;;15.31;100.00
11049;BME280;5577;42.706;23.160;2023-06-04T04:02:42;94422.75;;;15.36;100.00
11049;BME280;5577;42.706;23.160;2023-06-04T04:05:26;94423.53;;;15.37;100.00
11049;BME280;5577;42.706;23.160;2023-06-04T04:08:11;94426.25;;;15.44;100.00
11049;BME280;5577;42.706;23.160;2023-06-04T04:10:55;94427.84;;;15.48;100.00
11049;BME280;5577;42.706;23.160;2023-06-04T04:13:39;94427.16;;;15.58;100.00
11049;BME280;5577;42.706;23.160;2023-06-04T04:16:23;94434.41;;;15.61;100.00
11049;BME280;5577;42.706;23.160;2023-06-04T04:19:07;94408.69;;;15.39;100.00
11049;BME280;5577;42.706;23.160;2023-06-04T04:21:51;94439.41;;;15.66;100.00
11049;BME280;5577;42.706;23.160;2023-06-04T04:24:35;94436.38;;;15.71;100.00
11049;BME280;5577;42.706;23.160;2023-06-04T04:27:20;94439.84;;;15.75;100.00
11049;BME280;5577;42.706;23.160;2023-06-04T04:30:06;94431.53;;;15.84;100.00
11049;BME280;5577;42.706;23.160;2023-06-04T04:32:50;94436.53;;;15.92;100.00
11049;BME280;5577;42.706;23.160;2023-06-04T04:35:34;94428.16;;;15.90;100.00
11049;BME280;5577;42.706;23.160;2023-06-04T04:38:20;94437.28;;;15.89;100.00
11049;BME280;5577;42.706;23.160;2023-06-04T04:41:07;94436.22;;;15.97;100.00
11049;BME280;5577;42.706;23.160;2023-06-04T04:43:52;94449.88;;;15.89;100.00
11049;BME280;5577;42.706;23.160;2023-06-04T04:46:37;94440.03;;;16.03;100.00
11049;BME280;5577;42.706;23.160;2023-06-04T04:49:21;94440.03;;;16.03;100.00
11049;BME280;5577;42.706;23.160;2023-06-04T04:52:05;94444.53;;;15.89;100.00
11049;BME280;5577;42.706;23.160;2023-06-04T04:54:49;94445.00;;;16.01;100.00
11049;BME280;5577;42.706;23.160;2023-06-04T04:57:32;94444.69;;;16.10;100.00
11049;BME280;5577;42.706;23.160;2023-06-04T05:00:16;94450.44;;;16.15;100.00
11049;BME280;5577;42.706;23.160;2023-06-04T05:03:01;94454.31;;;16.25;100.00
11049;BME280;5577;42.706;23.160;2023-06-04T05:05:45;94440.53;;;16.23;100.00
11049;BME280;5577;42.706;23.160;2023-06-04T05:08:28;94446.34;;;16.28;100.00
11049;BME280;5577;42.706;23.160;2023-06-04T05:11:12;94442.84;;;16.24;100.00
11049;BME280;5577;42.706;23.160;2023-06-04T05:13:56;94448.63;;;16.33;100.00
11049;BME280;5577;42.706;23.160;2023-06-04T05:16:40;94447.84;;;16.29;100.00
11049;BME280;5577;42.706;23.160;2023-06-04T05:19:24;94453.69;;;16.42;100.00
11049;BME280;5577;42.706;23.160;2023-06-04T05:22:08;94455.25;;;16.53;100.00
11049;BME280;5577;42.706;23.160;2023-06-04T05:24:52;94454.94;;;16.62;100.00
11049;BME280;5577;42.706;23.160;2023-06-04T05:27:36;94454.16;;;16.65;100.00
11049;BME280;5577;42.706;23.160;2023-06-04T05:30:21;94454.97;;;16.69;100.00
11049;BME280;5577;42.706;23.160;2023-06-04T05:33:05;94452.56;;;16.50;100.00
11049;BME280;5577;42.706;23.160;2023-06-04T05:35:49;94459.78;;;16.42;100.00
11049;BME280;5577;42.706;23.160;2023-06-04T05:38:33;94452.41;;;16.25;100.00
11049;BME280;5577;42.706;23.160;2023-06-04T05:41:19;94469.56;;;16.21;100.00
11049;BME280;5577;42.706;23.160;2023-06-04T05:44:07;94473.75;;;16.18;100.00
11049;BME280;5577;42.706;23.160;2023-06-04T05:46:51;94468.03;;;16.20;100.00
11049;BME280;5577;42.706;23.160;2023-06-04T05:49:35;94472.91;;;16.11;100.00
11049;BME280;5577;42.706;23.160;2023-06-04T05:52:19;94471.03;;;16.15;100.00
11049;BME280;5577;42.706;23.160;2023-06-04T05:55:04;94466.44;;;16.12;100.00
11049;BME280;5577;42.706;23.160;2023-06-04T05:57:51;94481.19;;;16.42;100.00
11049;BME280;5577;42.706;23.160;2023-06-04T06:00:35;94476.16;;;16.41;100.00
11049;BME280;5577;42.706;23.160;2023-06-04T06:03:19;94485.31;;;16.40;100.00
11049;BME280;5577;42.706;23.160;2023-06-04T06:06:03;94488.91;;;16.61;100.00
11049;BME280;5577;42.706;23.160;2023-06-04T06:08:49;94487.31;;;16.50;100.00
11049;BME280;5577;42.706;23.160;2023-06-04T06:11:34;94491.53;;;16.54;100.00
11049;BME280;5577;42.706;23.160;2023-06-04T06:14:18;94493.84;;;16.59;100.00
11049;BME280;5577;42.706;23.160;2023-06-04T06:17:02;94470.84;;;16.44;100.00
11049;BME280;5577;42.706;23.160;2023-06-04T06:19:47;94493.47;;;16.61;100.00
11049;BME280;5577;42.706;23.160;2023-06-04T06:22:30;94487.78;;;16.66;100.00
11049;BME280;5577;42.706;23.160;2023-06-04T06:25:14;94493.13;;;16.66;100.00
11049;BME280;5577;42.706;23.160;2023-06-04T06:27:59;94490.50;;;16.76;100.00
11049;BME280;5577;42.706;23.160;2023-06-04T06:30:44;94477.16;;;16.83;100.00
11049;BME280;5577;42.706;23.160;2023-06-04T06:33:28;94490.91;;;16.85;100.00
11049;BME280;5577;42.706;23.160;2023-06-04T06:36:12;94488.16;;;16.68;100.00
11049;BME280;5577;42.706;23.160;2023-06-04T06:38:56;94490.06;;;16.64;100.00
11049;BME280;5577;42.706;23.160;2023-06-04T06:41:39;94491.63;;;16.75;100.00
11049;BME280;5577;42.706;23.160;2023-06-04T06:44:23;94492.44;;;16.83;100.00
11049;BME280;5577;42.706;23.160;2023-06-04T06:47:07;94472.19;;;16.82;100.00
11049;BME280;5577;42.706;23.160;2023-06-04T06:49:51;94491.34;;;17.01;100.00
11049;BME280;5577;42.706;23.160;2023-06-04T06:52:35;94486.75;;;16.98;100.00
11049;BME280;5577;42.706;23.160;2023-06-04T06:55:19;94484.88;;;17.06;100.00
11049;BME280;5577;42.706;23.160;2023-06-04T06:58:04;94487.91;;;16.97;100.00
11049;BME280;5577;42.706;23.160;2023-06-04T07:00:47;94494.44;;;17.07;100.00
11049;BME280;5577;42.706;23.160;2023-06-04T07:03:32;94497.88;;;17.04;100.00
11049;BME280;5577;42.706;23.160;2023-06-04T07:06:16;94494.06;;;17.05;100.00
11049;BME280;5577;42.706;23.160;2023-06-04T07:09:00;94494.81;;;17.09;100.00
11049;BME280;5577;42.706;23.160;2023-06-04T07:11:44;94501.31;;;17.11;100.00
11049;BME280;5577;42.706;23.160;2023-06-04T07:14:29;94496.00;;;17.15;100.00
11049;BME280;5577;42.706;23.160;2023-06-04T07:17:13;94505.56;;;17.23;100.00
11049;BME280;5577;42.706;23.160;2023-06-04T07:19:57;94507.47;;;17.23;100.00
11049;BME280;5577;42.706;23.160;2023-06-04T07:22:41;94518.19;;;17.26;100.00
11049;BME280;5577;42.706;23.160;2023-06-04T07:25:25;94515.91;;;17.25;100.00
11049;BME280;5577;42.706;23.160;2023-06-04T07:28:09;94518.97;;;17.30;100.00
11049;BME280;5577;42.706;23.160;2023-06-04T07:30:53;94522.81;;;17.29;100.00
11049;BME280;5577;42.706;23.160;2023-06-04T07:33:37;94514.38;;;17.27;100.00
11049;BME280;5577;42.706;23.160;2023-06-04T07:36:26;94522.41;;;17.34;100.00
11049;BME280;5577;42.706;23.160;2023-06-04T07:39:10;94528.22;;;17.43;100.00
11049;BME280;5577;42.706;23.160;2023-06-04T07:41:54;94527.84;;;17.48;100.00
11049;BME280;5577;42.706;23.160;2023-06-04T07:44:39;94536.28;;;17.68;100.00
11049;BME280;5577;42.706;23.160;2023-06-04T07:47:22;94531.69;;;17.61;100.00
11049;BME280;5577;42.706;23.160;2023-06-04T07:50:07;94499.16;;;17.45;100.00
11049;BME280;5577;42.706;23.160;2023-06-04T07:52:51;94535.91;;;17.76;100.00
11049;BME280;5577;42.706;23.160;2023-06-04T07:55:35;94533.25;;;17.97;100.00
11049;BME280;5577;42.706;23.160;2023-06-04T07:58:19;94543.22;;;18.07;100.00
11049;BME280;5577;42.706;23.160;2023-06-04T08:01:03;94547.41;;;17.94;100.00
11049;BME280;5577;42.706;23.160;2023-06-04T08:03:47;94543.19;;;17.90;100.00
11049;BME280;5577;42.706;23.160;2023-06-04T08:06:31;94541.28;;;17.83;100.00
11049;BME280;5577;42.706;23.160;2023-06-04T08:09:15;94543.19;;;17.83;100.00
11049;BME280;5577;42.706;23.160;2023-06-04T08:11:59;94543.19;;;17.97;100.00
11049;BME280;5577;42.706;23.160;2023-06-04T08:14:44;94548.56;;;18.11;100.00
11049;BME280;5577;42.706;23.160;2023-06-04T08:17:29;94542.47;;;18.17;100.00
11049;BME280;5577;42.706;23.160;2023-06-04T08:20:13;94510.28;;;18.00;100.00
11049;BME280;5577;42.706;23.160;2023-06-04T08:22:57;94556.66;;;18.35;100.00
11049;BME280;5577;42.706;23.160;2023-06-04T08:25:41;94553.16;;;18.63;100.00
11049;BME280;5577;42.706;23.160;2023-06-04T08:28:25;94548.91;;;18.90;100.00
11049;BME280;5577;42.706;23.160;2023-06-04T08:31:09;94545.00;;;19.08;100.00
11049;BME280;5577;42.706;23.160;2023-06-04T08:33:53;94544.50;;;19.45;100.00
11049;BME280;5577;42.706;23.160;2023-06-04T08:36:37;94541.63;;;19.76;100.00
11049;BME280;5577;42.706;23.160;2023-06-04T08:39:21;94541.81;;;20.07;100.00
11049;BME280;5577;42.706;23.160;2023-06-04T08:42:07;94515.19;;;19.71;100.00
11049;BME280;5577;42.706;23.160;2023-06-04T08:44:53;94548.88;;;19.87;100.00
11049;BME280;5577;42.706;23.160;2023-06-04T08:47:37;94545.97;;;20.18;100.00
11049;BME280;5577;42.706;23.160;2023-06-04T08:50:23;94553.56;;;20.27;100.00
11049;BME280;5577;42.706;23.160;2023-06-04T08:53:08;94537.09;;;20.25;100.00
11049;BME280;5577;42.706;23.160;2023-06-04T08:55:55;94548.59;;;20.29;100.00
11049;BME280;5577;42.706;23.160;2023-06-04T08:58:40;94546.00;;;20.11;100.00
11049;BME280;5577;42.706;23.160;2023-06-04T09:01:25;94545.44;;;20.37;100.00
11049;BME280;5577;42.706;23.160;2023-06-04T09:04:10;94549.97;;;20.47;100.00
11049;BME280;5577;42.706;23.160;2023-06-04T09:07:00;94551.81;;;20.57;100.00
11049;BME280;5577;42.706;23.160;2023-06-04T09:09:46;94552.00;;;20.36;100.00
11049;BME280;5577;42.706;23.160;2023-06-04T09:12:32;94549.50;;;20.56;100.00
11049;BME280;5577;42.706;23.160;2023-06-04T09:15:19;94541.59;;;20.38;100.00
11049;BME280;5577;42.706;23.160;2023-06-04T09:18:03;94546.41;;;20.57;100.00
11049;BME280;5577;42.706;23.160;2023-06-04T09:20:47;94508.84;;;20.47;100.00
11049;BME280;5577;42.706;23.160;2023-06-04T09:23:35;94534.78;;;20.67;100.00
11049;BME280;5577;42.706;23.160;2023-06-04T09:26:19;94544.81;;;20.63;100.00
11049;BME280;5577;42.706;23.160;2023-06-04T09:29:05;94534.69;;;20.78;100.00
11049;BME280;5577;42.706;23.160;2023-06-04T09:31:58;94536.53;;;20.84;100.00
11049;BME280;5577;42.706;23.160;2023-06-04T09:34:42;94544.34;;;20.72;100.00
11049;BME280;5577;42.706;23.160;2023-06-04T09:37:28;94537.38;;;20.78;100.00
11049;BME280;5577;42.706;23.160;2023-06-04T09:40:13;94538.88;;;20.82;100.00
11049;BME280;5577;42.706;23.160;2023-06-04T09:42:57;94533.91;;;20.77;100.00
11049;BME280;5577;42.706;23.160;2023-06-04T09:45:42;94533.38;;;20.96;100.00
11049;BME280;5577;42.706;23.160;2023-06-04T09:48:26;94536.47;;;20.95;100.00
11049;BME280;5577;42.706;23.160;2023-06-04T09:51:11;94534.72;;;21.11;100.00
11049;BME280;5577;42.706;23.160;2023-06-04T09:53:57;94539.81;;;21.36;100.00
11049;BME280;5577;42.706;23.160;2023-06-04T09:56:42;94540.94;;;21.38;100.00
11049;BME280;5577;42.706;23.160;2023-06-04T09:59:26;94534.88;;;21.31;100.00
11049;BME280;5577;42.706;23.160;2023-06-04T10:02:12;94539.38;;;21.41;100.00
11049;BME280;5577;42.706;23.160;2023-06-04T10:04:59;94525.44;;;21.16;100.00
11049;BME280;5577;42.706;23.160;2023-06-04T10:07:44;94535.44;;;21.15;100.00
11049;BME280;5577;42.706;23.160;2023-06-04T10:10:29;94526.41;;;20.58;100.00
11049;BME280;5577;42.706;23.160;2023-06-04T10:13:17;94530.75;;;20.45;100.00
11049;BME280;5577;42.706;23.160;2023-06-04T10:16:02;94526.16;;;20.46;100.00
11049;BME280;5577;42.706;23.160;2023-06-04T10:18:47;94537.66;;;20.46;100.00
11049;BME280;5577;42.706;23.160;2023-06-04T10:21:32;94536.53;;;20.44;100.00
11049;BME280;5577;42.706;23.160;2023-06-04T10:24:19;94516.16;;;20.46;100.00
11049;BME280;5577;42.706;23.160;2023-06-04T10:27:06;94511.97;;;20.79;100.00
11049;BME280;5577;42.706;23.160;2023-06-04T10:29:54;94529.81;;;21.06;100.00
11049;BME280;5577;42.706;23.160;2023-06-04T10:32:38;94526.09;;;21.83;100.00
11049;BME280;5577;42.706;23.160;2023-06-04T10:35:30;94511.78;;;22.13;100.00
11049;BME280;5577;42.706;23.160;2023-06-04T10:38:14;94529.53;;;21.87;100.00
11049;BME280;5577;42.706;23.160;2023-06-04T10:41:12;94531.53;;;21.50;100.00
11049;BME280;5577;42.706;23.160;2023-06-04T10:44:01;94511.69;;;21.07;100.00
11049;BME280;5577;42.706;23.160;2023-06-04T10:46:45;94499.56;;;20.88;100.00
11049;BME280;5577;42.706;23.160;2023-06-04T10:49:30;94521.63;;;20.76;100.00
11049;BME280;5577;42.706;23.160;2023-06-04T10:52:14;94530.69;;;20.96;100.00
11049;BME280;5577;42.706;23.160;2023-06-04T10:55:06;94515.91;;;21.08;100.00
11049;BME280;5577;42.706;23.160;2023-06-04T10:57:58;94528.03;;;21.53;100.00
11049;BME280;5577;42.706;23.160;2023-06-04T11:00:46;94528.84;;;21.20;100.00
11049;BME280;5577;42.706;23.160;2023-06-04T11:03:38;94526.16;;;21.20;100.00
11049;BME280;5577;42.706;23.160;2023-06-04T11:06:22;94528.53;;;21.14;100.00
11049;BME280;5577;42.706;23.160;2023-06-04T11:09:14;94522.91;;;21.02;100.00
11049;BME280;5577;42.706;23.160;2023-06-04T11:12:05;94481.81;;;20.61;100.00
11049;BME280;5577;42.706;23.160;2023-06-04T11:14:56;94529.75;;;21.10;100.00
11049;BME280;5577;42.706;23.160;2023-06-04T11:17:54;94515.53;;;21.96;100.00
11049;BME280;5577;42.706;23.160;2023-06-04T11:20:39;94517.69;;;22.77;100.00
11049;BME280;5577;42.706;23.160;2023-06-04T11:23:23;94511.41;;;23.42;100.00
11049;BME280;5577;42.706;23.160;2023-06-04T11:26:07;94523.41;;;23.41;100.00
11049;BME280;5577;42.706;23.160;2023-06-04T11:28:51;94516.34;;;23.47;100.00
11049;BME280;5577;42.706;23.160;2023-06-04T11:31:46;94518.75;;;22.60;100.00
11049;BME280;5577;42.706;23.160;2023-06-04T11:34:30;94478.09;;;22.48;100.00
11049;BME280;5577;42.706;23.160;2023-06-04T11:37:15;94517.72;;;23.71;100.00
11049;BME280;5577;42.706;23.160;2023-06-04T11:39:59;94498.72;;;23.20;100.00
11049;BME280;5577;42.706;23.160;2023-06-04T11:42:50;94512.06;;;22.68;100.00
11049;BME280;5577;42.706;23.160;2023-06-04T11:45:35;94507.94;;;22.37;100.00
11049;BME280;5577;42.706;23.160;2023-06-04T11:48:20;94495.53;;;21.93;100.00
11049;BME280;5577;42.706;23.160;2023-06-04T11:51:07;94504.72;;;21.73;100.00
11049;BME280;5577;42.706;23.160;2023-06-04T11:53:52;94513.72;;;21.59;100.00
11049;BME280;5577;42.706;23.160;2023-06-04T11:56:37;94513.25;;;21.38;100.00
11049;BME280;5577;42.706;23.160;2023-06-04T11:59:20;94513.03;;;21.22;100.00
11049;BME280;5577;42.706;23.160;2023-06-04T12:02:07;94502.91;;;21.03;100.00
11049;BME280;5577;42.706;23.160;2023-06-04T12:04:51;94513.38;;;20.94;100.00
11049;BME280;5577;42.706;23.160;2023-06-04T12:07:35;94502.66;;;20.87;100.00
11049;BME280;5577;42.706;23.160;2023-06-04T12:10:19;94508.41;;;20.89;100.00
11049;BME280;5577;42.706;23.160;2023-06-04T12:13:04;94518.34;;;20.99;100.00
11049;BME280;5577;42.706;23.160;2023-06-04T12:15:54;94514.56;;;20.89;100.00
11049;BME280;5577;42.706;23.160;2023-06-04T12:18:38;94510.72;;;20.87;100.00
11049;BME280;5577;42.706;23.160;2023-06-04T12:21:24;94508.16;;;20.76;100.00
11049;BME280;5577;42.706;23.160;2023-06-04T12:24:12;94514.66;;;20.82;100.00
11049;BME280;5577;42.706;23.160;2023-06-04T12:27:07;94510.41;;;20.81;100.00
11049;BME280;5577;42.706;23.160;2023-06-04T12:29:59;94519.97;;;20.89;100.00
11049;BME280;5577;42.706;23.160;2023-06-04T12:32:43;94515.31;;;20.93;100.00
11049;BME280;5577;42.706;23.160;2023-06-04T12:35:28;94522.47;;;21.07;100.00
11049;BME280;5577;42.706;23.160;2023-06-04T12:38:12;94510.19;;;21.92;100.00
11049;BME280;5577;42.706;23.160;2023-06-04T12:40:56;94514.09;;;22.61;100.00
11049;BME280;5577;42.706;23.160;2023-06-04T12:43:40;94513.31;;;22.83;100.00
11049;BME280;5577;42.706;23.160;2023-06-04T12:46:24;94515.25;;;22.63;100.00
11049;BME280;5577;42.706;23.160;2023-06-04T12:49:08;94510.53;;;22.67;100.00
11049;BME280;5577;42.706;23.160;2023-06-04T12:51:52;94509.41;;;22.41;100.00
11049;BME280;5577;42.706;23.160;2023-06-04T12:54:36;94513.34;;;22.37;100.00
11049;BME280;5577;42.706;23.160;2023-06-04T12:57:20;94515.88;;;22.90;100.00
11049;BME280;5577;42.706;23.160;2023-06-04T13:00:05;94510.09;;;23.31;100.00
11049;BME280;5577;42.706;23.160;2023-06-04T13:02:49;94508.97;;;23.09;100.00
11049;BME280;5577;42.706;23.160;2023-06-04T13:05:33;94517.88;;;23.64;100.00
11049;BME280;5577;42.706;23.160;2023-06-04T13:08:17;94496.16;;;22.93;100.00
11049;BME280;5577;42.706;23.160;2023-06-04T13:11:01;94523.81;;;22.78;100.00
11049;BME280;5577;42.706;23.160;2023-06-04T13:13:46;94502.50;;;23.26;100.00
11049;BME280;5577;42.706;23.160;2023-06-04T13:16:30;94515.50;;;22.45;100.00
11049;BME280;5577;42.706;23.160;2023-06-04T13:19:14;94507.00;;;22.24;100.00
11049;BME280;5577;42.706;23.160;2023-06-04T13:21:58;94513.44;;;22.07;100.00
11049;BME280;5577;42.706;23.160;2023-06-04T13:24:42;94520.19;;;21.92;100.00
11049;BME280;5577;42.706;23.160;2023-06-04T13:27:26;94525.00;;;21.81;100.00
11049;BME280;5577;42.706;23.160;2023-06-04T13:30:11;94518.03;;;21.53;100.00
11049;BME280;5577;42.706;23.160;2023-06-04T13:32:56;94519.81;;;21.37;100.00
11049;BME280;5577;42.706;23.160;2023-06-04T13:35:42;94520.94;;;21.36;100.00
11049;BME280;5577;42.706;23.160;2023-06-04T13:38:26;94512.97;;;21.29;100.00
11049;BME280;5577;42.706;23.160;2023-06-04T13:41:10;94460.16;;;21.08;100.00
11049;BME280;5577;42.706;23.160;2023-06-04T13:43:54;94515.63;;;21.62;100.00
11049;BME280;5577;42.706;23.160;2023-06-04T13:46:41;94518.31;;;21.62;100.00
11049;BME280;5577;42.706;23.160;2023-06-04T13:49:25;94507.47;;;21.36;100.00
11049;BME280;5577;42.706;23.160;2023-06-04T13:52:09;94512.38;;;21.14;100.00
11049;BME280;5577;42.706;23.160;2023-06-04T13:54:52;94503.69;;;21.03;100.00
11049;BME280;5577;42.706;23.160;2023-06-04T13:57:36;94501.47;;;20.95;100.00
11049;BME280;5577;42.706;23.160;2023-06-04T14:00:20;94519.94;;;20.93;100.00
11049;BME280;5577;42.706;23.160;2023-06-04T14:03:05;94513.56;;;20.73;100.00
11049;BME280;5577;42.706;23.160;2023-06-04T14:05:49;94516.72;;;20.68;100.00
11049;BME280;5577;42.706;23.160;2023-06-04T14:08:33;94524.13;;;20.57;100.00
11049;BME280;5577;42.706;23.160;2023-06-04T14:11:17;94484.59;;;20.06;100.00
11049;BME280;5577;42.706;23.160;2023-06-04T14:14:01;94531.94;;;20.41;100.00
11049;BME280;5577;42.706;23.160;2023-06-04T14:16:45;94456.41;;;19.80;100.00
11049;BME280;5577;42.706;23.160;2023-06-04T14:19:29;94538.66;;;20.22;100.00
11049;BME280;5577;42.706;23.160;2023-06-04T14:22:13;94488.63;;;19.80;100.00